createdAt,value
2018-04-12T00:02:14.232Z,64.50
2018-04-12T00:04:46.202Z,64.50
2018-04-12T00:07:15.862Z,64.40
2018-04-12T00:09:45.615Z,64.50
2018-04-12T00:12:15.598Z,64.30
2018-04-12T00:14:45.647Z,64.60
2018-04-12T00:17:15.356Z,64.60
2018-04-12T00:19:46.910Z,64.60
2018-04-12T00:22:18.260Z,64.80
2018-04-12T00:24:49.606Z,64.60
2018-04-12T00:27:19.314Z,64.60
2018-04-12T00:29:49.640Z,64.80
2018-04-12T00:32:21.191Z,64.80
2018-04-12T00:34:52.543Z,65.10
2018-04-12T00:37:22.458Z,65.10
2018-04-12T00:39:52.777Z,64.80
2018-04-12T00:42:24.741Z,65.10
2018-04-12T00:44:54.654Z,64.90
2018-04-12T00:47:24.577Z,64.60
2018-04-12T00:49:54.682Z,64.80
2018-04-12T00:52:24.601Z,64.70
2018-04-12T00:54:54.310Z,65.00
2018-04-12T00:57:24.021Z,64.70
2018-04-12T00:59:54.550Z,64.80
2018-04-12T01:02:24.259Z,64.80
2018-04-12T01:04:54.176Z,64.80
2018-04-12T01:07:23.884Z,64.90
2018-04-12T01:09:54.003Z,64.80
2018-04-12T01:12:25.309Z,65.00
2018-04-12T01:14:55.061Z,64.90
2018-04-12T01:17:25.043Z,65.10
2018-04-12T01:19:54.854Z,64.80
2018-04-12T01:22:24.719Z,65.00
2018-04-12T01:24:55.536Z,65.60
2018-04-12T01:27:25.451Z,64.90
2018-04-12T01:29:55.775Z,65.20
2018-04-12T01:32:26.918Z,65.10
2018-04-12T01:34:57.651Z,65.20
2018-04-12T01:37:27.364Z,65.80
2018-04-12T01:39:57.480Z,65.20
2018-04-12T01:42:28.212Z,65.30
2018-04-12T01:44:58.335Z,65.50
2018-04-12T01:47:29.633Z,65.30
2018-04-12T01:49:59.798Z,65.20
2018-04-12T01:52:31.261Z,65.40
2018-04-12T01:55:01.245Z,65.40
2018-04-12T01:57:30.974Z,65.40
2018-04-12T02:00:02.663Z,65.60
2018-04-12T02:02:33.621Z,65.80
2018-04-12T02:05:03.379Z,65.80
2018-04-12T02:07:34.524Z,65.80
2018-04-12T02:10:04.439Z,65.70
2018-04-12T02:12:34.147Z,65.70
2018-04-12T02:15:04.011Z,65.90
2018-04-12T02:17:34.035Z,66.00
2018-04-12T02:20:04.057Z,65.80
2018-04-12T02:22:34.420Z,65.90
2018-04-12T02:25:04.129Z,66.00
2018-04-12T02:27:33.843Z,66.00
2018-04-12T02:30:05.188Z,66.20
2018-04-12T02:32:35.100Z,66.10
2018-04-12T02:35:07.120Z,66.20
2018-04-12T02:37:36.976Z,66.20
2018-04-12T02:40:07.059Z,66.20
2018-04-12T02:42:36.806Z,66.40
2018-04-12T02:45:06.515Z,66.40
2018-04-12T02:47:36.776Z,66.40
2018-04-12T02:50:06.755Z,66.60
2018-04-12T02:52:37.077Z,66.80
2018-04-12T02:55:07.195Z,66.40
2018-04-12T02:57:36.909Z,66.30
2018-04-12T03:00:07.315Z,66.50
2018-04-12T03:02:37.348Z,66.50
2018-04-12T03:05:07.402Z,66.70
2018-04-12T03:07:37.177Z,66.80
2018-04-12T03:10:07.673Z,66.70
2018-04-12T03:12:37.418Z,66.90
2018-04-12T03:15:07.692Z,66.90
2018-04-12T03:17:37.449Z,66.70
2018-04-12T03:20:07.572Z,67.10
2018-04-12T03:22:37.554Z,67.00
2018-04-12T03:25:08.422Z,67.20
2018-04-12T03:27:38.131Z,67.30
2018-04-12T03:30:08.009Z,67.50
2018-04-12T03:32:37.962Z,67.30
2018-04-12T03:35:07.871Z,67.40
2018-04-12T03:37:39.328Z,68.20
2018-04-12T03:40:09.953Z,67.50
2018-04-12T03:42:41.516Z,67.40
2018-04-12T03:45:11.580Z,67.40
2018-04-12T03:47:41.540Z,67.50
2018-04-12T03:50:11.562Z,67.50
2018-04-12T03:52:41.370Z,67.40
2018-04-12T03:55:11.085Z,67.50
2018-04-12T03:57:41.819Z,67.80
2018-04-12T04:00:11.930Z,67.80
2018-04-12T04:02:42.253Z,67.30
2018-04-12T04:05:12.168Z,68.10
2018-04-12T04:07:42.291Z,67.70
2018-04-12T04:10:12.815Z,67.70
2018-04-12T04:12:44.583Z,68.00
2018-04-12T04:15:25.550Z,68.00
2018-04-12T04:21:10.229Z,67.80
2018-04-12T04:23:40.140Z,67.70
2018-04-12T04:26:10.260Z,68.20
2018-04-12T04:28:40.380Z,68.10
2018-04-12T04:31:10.614Z,67.80
2018-04-12T04:33:41.231Z,68.10
2018-04-12T04:36:10.941Z,68.10
2018-04-12T04:38:41.325Z,67.90
2018-04-12T04:41:12.000Z,68.10
2018-04-12T04:43:42.379Z,68.00
2018-04-12T04:46:12.851Z,68.10
2018-04-12T04:48:42.768Z,67.90
2018-04-12T04:51:14.114Z,67.90
2018-04-12T04:53:43.822Z,67.90
2018-04-12T04:56:13.593Z,68.20
2018-04-12T04:58:43.445Z,68.30
2018-04-12T05:01:13.322Z,68.30
2018-04-12T05:03:43.279Z,68.00
2018-04-12T05:06:13.397Z,68.20
2018-04-12T05:08:43.454Z,68.60
2018-04-12T05:11:13.428Z,68.70
2018-04-12T05:13:44.778Z,68.70
2018-04-12T05:16:17.970Z,68.70
2018-04-12T05:18:47.882Z,68.80
2018-04-12T05:21:17.751Z,68.90
2018-04-12T05:23:47.870Z,68.90
2018-04-12T05:26:17.621Z,69.10
2018-04-12T05:28:49.567Z,69.10
2018-04-12T05:31:19.296Z,69.30
2018-04-12T05:33:49.165Z,69.20
2018-04-12T05:36:19.142Z,69.20
2018-04-12T05:38:49.210Z,69.20
2018-04-12T05:41:18.952Z,69.60
2018-04-12T05:43:49.412Z,69.30
2018-04-12T05:46:19.228Z,69.30
2018-04-12T05:48:49.308Z,69.40
2018-04-12T05:51:19.223Z,69.10
2018-04-12T05:53:49.341Z,69.30
2018-04-12T05:56:19.255Z,69.30
2018-04-12T05:58:50.288Z,69.10
2018-04-12T06:01:20.868Z,69.40
2018-04-12T06:03:50.734Z,69.10
2018-04-12T06:06:20.527Z,69.30
2018-04-12T06:08:50.644Z,69.30
2018-04-12T06:11:20.789Z,69.10
2018-04-12T06:13:50.909Z,69.10
2018-04-12T06:16:20.989Z,69.10
2018-04-12T06:18:51.556Z,69.20
2018-04-12T06:21:21.295Z,69.20
2018-04-12T06:23:51.181Z,69.40
2018-04-12T06:26:21.300Z,69.40
2018-04-12T06:28:51.419Z,69.40
2018-04-12T06:31:21.334Z,69.40
2018-04-12T06:33:51.045Z,69.40
2018-04-12T06:36:20.956Z,69.40
2018-04-12T06:38:50.871Z,70.10
2018-04-12T06:41:20.580Z,69.50
2018-04-12T06:43:50.494Z,69.50
2018-04-12T06:46:20.745Z,69.50
2018-04-12T06:48:50.894Z,69.60
2018-04-12T06:51:21.055Z,69.60
2018-04-12T06:53:50.763Z,69.70
2018-04-12T06:56:20.884Z,70.00
2018-04-12T06:58:51.821Z,70.00
2018-04-12T07:01:21.943Z,70.00
2018-04-12T07:03:51.814Z,70.00
2018-04-12T07:06:21.979Z,70.00
2018-04-12T07:08:52.233Z,70.10
2018-04-12T07:11:22.212Z,70.10
2018-04-12T07:13:52.125Z,70.20
2018-04-12T07:16:22.003Z,70.20
2018-04-12T07:18:52.158Z,70.30
2018-04-12T07:21:22.211Z,70.40
2018-04-12T07:23:52.219Z,70.50
2018-04-12T07:26:22.269Z,70.30
2018-04-12T07:28:52.019Z,70.40
2018-04-12T07:31:21.731Z,70.70
2018-04-12T07:33:51.438Z,70.80
2018-04-12T07:36:21.557Z,70.70
2018-04-12T07:38:51.677Z,70.60
2018-04-12T07:41:21.591Z,70.90
2018-04-12T07:43:51.704Z,70.70
2018-04-12T07:46:23.672Z,71.00
2018-04-12T07:48:53.713Z,71.00
2018-04-12T07:51:25.349Z,71.10
2018-04-12T07:53:56.287Z,71.10
2018-04-12T07:56:26.205Z,71.10
2018-04-12T07:58:56.734Z,71.20
2018-04-12T08:01:27.458Z,71.40
2018-04-12T08:03:57.374Z,71.30
2018-04-12T08:06:28.516Z,71.40
2018-04-12T08:08:58.226Z,71.40
2018-04-12T08:11:27.938Z,71.70
2018-04-12T08:13:58.260Z,71.50
2018-04-12T08:16:28.997Z,71.60
2018-04-12T08:18:58.906Z,71.50
2018-04-12T08:21:28.617Z,71.40
2018-04-12T08:23:58.328Z,71.40
2018-04-12T08:26:28.653Z,71.60
2018-04-12T08:29:00.600Z,71.60
2018-04-12T08:31:31.620Z,71.60
2018-04-12T08:34:03.134Z,71.60
2018-04-12T08:36:32.812Z,71.90
2018-04-12T08:39:02.523Z,71.70
2018-04-12T08:41:34.492Z,71.70
2018-04-12T08:44:08.980Z,71.80
2018-04-12T08:46:39.673Z,71.80
2018-04-12T08:49:11.697Z,71.80
2018-04-12T08:51:41.723Z,71.80
2018-04-12T08:54:11.599Z,71.80
2018-04-12T08:56:42.514Z,71.90
2018-04-12T08:59:13.318Z,71.80
2018-04-12T09:01:43.229Z,71.90
2018-04-12T09:04:14.568Z,72.00
2018-04-12T09:06:44.870Z,72.00
2018-04-12T09:09:14.813Z,72.00
2018-04-12T09:11:44.925Z,71.90
2018-04-12T09:14:15.044Z,72.20
2018-04-12T09:16:50.440Z,71.90
2018-04-12T09:19:20.198Z,72.10
2018-04-12T09:21:50.111Z,72.30
2018-04-12T09:24:22.074Z,72.30
2018-04-12T09:26:52.821Z,73.00
2018-04-12T09:29:22.722Z,73.00
2018-04-12T09:31:54.072Z,71.90
2018-04-12T09:34:24.702Z,71.80
2018-04-12T09:36:56.012Z,71.50
2018-04-12T09:39:25.812Z,71.50
2018-04-12T09:41:57.108Z,72.00
2018-04-12T09:44:28.459Z,71.90
2018-04-12T09:46:58.329Z,72.10
2018-04-12T09:49:28.947Z,72.10
2018-04-12T09:51:58.988Z,72.20
2018-04-12T09:54:28.930Z,72.30
2018-04-12T09:56:58.844Z,72.30
2018-04-12T09:59:28.761Z,72.30
2018-04-12T10:02:01.906Z,72.10
2018-04-12T10:04:34.732Z,72.30
2018-04-12T10:07:05.978Z,72.20
2018-04-12T10:09:35.947Z,72.20
2018-04-12T10:12:06.010Z,71.80
2018-04-12T10:14:35.924Z,72.00
2018-04-12T10:17:06.044Z,71.40
2018-04-12T10:19:36.367Z,70.90
2018-04-12T10:22:06.693Z,71.20
2018-04-12T10:24:36.613Z,71.40
2018-04-12T10:27:07.300Z,71.60
2018-04-12T10:29:38.550Z,70.80
2018-04-12T10:32:09.832Z,70.80
2018-04-12T10:34:39.640Z,70.70
2018-04-12T10:37:09.797Z,70.80
2018-04-12T10:39:39.735Z,71.20
2018-04-12T10:42:09.898Z,70.10
2018-04-12T10:44:39.975Z,70.40
2018-04-12T10:47:10.344Z,70.70
2018-04-12T10:49:40.367Z,69.90
2018-04-12T10:52:11.374Z,70.10
2018-04-12T10:54:41.317Z,70.10
2018-04-12T10:57:11.227Z,70.00
2018-04-12T10:59:41.243Z,68.90
2018-04-12T11:02:11.157Z,69.80
2018-04-12T11:04:41.105Z,69.70
2018-04-12T11:07:10.983Z,70.10
2018-04-12T11:09:40.886Z,70.60
2018-04-12T11:12:10.815Z,70.60
2018-04-12T11:14:40.890Z,70.80
2018-04-12T11:17:11.507Z,71.50
2018-04-12T11:19:41.625Z,71.00
2018-04-12T11:22:11.699Z,71.00
2018-04-12T11:24:41.818Z,70.80
2018-04-12T11:27:11.754Z,70.80
2018-04-12T11:29:42.056Z,71.00
2018-04-12T11:32:12.790Z,71.00
2018-04-12T11:34:42.499Z,71.00
2018-04-12T11:37:13.848Z,71.00
2018-04-12T11:39:43.556Z,71.00
2018-04-12T11:42:13.471Z,71.20
2018-04-12T11:44:45.027Z,71.20
2018-04-12T11:47:15.756Z,71.20
2018-04-12T11:49:45.884Z,71.50
2018-04-12T11:52:16.000Z,70.50
2018-04-12T11:54:45.908Z,69.70
2018-04-12T11:57:17.667Z,70.50
2018-04-12T11:59:48.401Z,70.50
2018-04-12T12:02:18.540Z,70.70
2018-04-12T12:04:48.544Z,70.90
2018-04-12T12:07:18.554Z,71.10
2018-04-12T12:09:48.469Z,70.50
2018-04-12T12:12:18.382Z,70.10
2018-04-12T12:14:48.296Z,69.40
2018-04-12T12:17:19.029Z,70.10
2018-04-12T12:19:49.575Z,69.10
2018-04-12T12:22:19.678Z,69.30
2018-04-12T12:24:49.591Z,69.40
2018-04-12T12:27:21.145Z,68.70
2018-04-12T12:29:51.097Z,68.60
2018-04-12T12:32:21.177Z,68.00
2018-04-12T12:34:51.095Z,68.00
2018-04-12T12:37:21.007Z,67.10
2018-04-12T12:39:50.926Z,66.70
2018-04-12T12:42:21.449Z,67.30
2018-04-12T12:44:52.804Z,68.40
2018-04-12T12:47:23.942Z,68.50
2018-04-12T12:49:54.071Z,68.50
2018-04-12T12:52:23.979Z,68.60
2018-04-12T12:54:53.889Z,68.70
2018-04-12T12:57:23.655Z,68.80
2018-04-12T12:59:53.755Z,68.60
2018-04-12T13:02:23.872Z,68.90
2018-04-12T13:04:53.752Z,68.90
2018-04-12T13:07:24.284Z,69.00
2018-04-12T13:09:54.194Z,69.10
2018-04-12T13:12:24.223Z,68.90
2018-04-12T13:14:54.847Z,69.20
2018-04-12T13:17:24.757Z,69.20
2018-04-12T13:19:54.578Z,69.30
2018-04-12T13:22:27.820Z,69.30
2018-04-12T13:24:57.905Z,69.20
2018-04-12T13:27:27.971Z,70.10
2018-04-12T13:29:58.321Z,69.30
2018-04-12T13:32:29.260Z,69.40
2018-04-12T13:34:59.793Z,69.40
2018-04-12T13:37:29.907Z,69.20
2018-04-12T13:40:00.026Z,69.30
2018-04-12T13:42:32.023Z,69.20
2018-04-12T13:45:02.075Z,69.40
2018-04-12T13:47:32.023Z,69.30
2018-04-12T13:50:03.577Z,69.40
2018-04-12T13:52:38.608Z,69.50
2018-04-12T13:55:08.526Z,69.40
2018-04-12T13:57:38.247Z,69.40
2018-04-12T14:00:08.148Z,69.30
2018-04-12T14:02:39.084Z,69.40
2018-04-12T14:05:09.092Z,69.40
2018-04-12T14:07:38.913Z,69.20
2018-04-12T14:10:09.855Z,69.40
2018-04-12T14:12:39.971Z,69.20
2018-04-12T14:15:11.524Z,68.90
2018-04-12T14:17:42.462Z,68.90
2018-04-12T14:20:12.788Z,69.20
2018-04-12T14:22:42.904Z,69.20
2018-04-12T14:25:12.822Z,69.00
2018-04-12T14:27:42.742Z,69.10
2018-04-12T14:30:12.645Z,68.90
2018-04-12T14:32:43.175Z,69.10
2018-04-12T14:35:15.043Z,69.30
2018-04-12T14:37:45.677Z,69.40
2018-04-12T14:40:15.786Z,69.40
2018-04-12T14:42:45.904Z,69.50
2018-04-12T14:45:15.820Z,69.30
2018-04-12T14:47:46.969Z,67.50
2018-04-12T14:50:17.699Z,67.30
2018-04-12T14:52:47.611Z,68.50
2018-04-12T14:55:17.318Z,68.90
2018-04-12T14:57:47.029Z,68.60
2018-04-12T15:00:16.947Z,68.50
2018-04-12T15:02:48.498Z,67.90
2018-04-12T15:05:19.233Z,68.00
2018-04-12T15:07:49.455Z,68.00
2018-04-12T15:10:20.081Z,68.70
2018-04-12T15:12:50.376Z,68.00
2018-04-12T15:15:20.527Z,67.40
2018-04-12T15:17:50.645Z,68.20
2018-04-12T15:20:20.558Z,68.20
2018-04-12T15:22:50.676Z,67.90
2018-04-12T15:25:21.208Z,68.00
2018-04-12T15:27:52.551Z,67.40
2018-04-12T15:30:22.467Z,67.40
2018-04-12T15:32:52.338Z,67.80
2018-04-12T15:35:22.297Z,67.40
2018-04-12T15:37:52.620Z,67.40
2018-04-12T15:40:24.313Z,66.00
2018-04-12T15:42:54.292Z,66.10
2018-04-12T15:45:25.913Z,67.20
2018-04-12T15:47:55.759Z,67.20
2018-04-12T15:50:25.636Z,67.80
2018-04-12T15:52:55.588Z,67.30
2018-04-12T15:55:25.727Z,67.10
2018-04-12T15:57:55.916Z,67.50
2018-04-12T16:00:26.588Z,67.60
2018-04-12T16:02:57.301Z,67.40
2018-04-12T16:05:27.412Z,67.40
2018-04-12T16:07:57.333Z,67.50
2018-04-12T16:10:28.060Z,67.80
2018-04-12T16:12:57.973Z,67.60
2018-04-12T16:15:27.895Z,66.10
2018-04-12T16:17:58.411Z,67.00
2018-04-12T16:20:29.975Z,65.30
2018-04-12T16:22:59.681Z,65.30
2018-04-12T16:25:29.593Z,65.90
2018-04-12T16:27:59.507Z,66.20
2018-04-12T16:30:29.429Z,65.60
2018-04-12T16:32:59.508Z,66.00
2018-04-12T16:35:29.456Z,66.00
2018-04-12T16:37:59.369Z,66.00
2018-04-12T16:40:29.088Z,65.70
2018-04-12T16:42:59.814Z,66.00
2018-04-12T16:45:29.906Z,65.10
2018-04-12T16:48:00.015Z,65.40
2018-04-12T16:50:29.966Z,65.00
2018-04-12T16:52:59.887Z,65.00
2018-04-12T16:55:29.998Z,65.40
2018-04-12T16:58:01.729Z,64.40
2018-04-12T17:00:31.673Z,64.50
2018-04-12T17:03:02.405Z,64.50
2018-04-12T17:05:32.320Z,64.50
2018-04-12T17:08:03.055Z,64.80
2018-04-12T17:10:32.763Z,64.70
2018-04-12T17:13:02.840Z,64.40
2018-04-12T17:15:32.796Z,64.20
2018-04-12T17:18:02.710Z,64.60
2018-04-12T17:20:32.625Z,64.70
2018-04-12T17:23:02.539Z,64.60
2018-04-12T17:25:34.092Z,64.20
2018-04-12T17:28:04.141Z,64.20
2018-04-12T17:30:34.945Z,64.00
2018-04-12T17:33:05.138Z,64.40
2018-04-12T17:35:35.801Z,64.40
2018-04-12T17:38:05.916Z,64.30
2018-04-12T17:40:36.005Z,64.40
2018-04-12T17:43:06.325Z,64.20
2018-04-12T17:45:36.480Z,64.20
2018-04-12T17:48:06.584Z,64.00
2018-04-12T17:50:36.512Z,64.00
2018-04-12T17:53:06.632Z,64.20
2018-04-12T17:55:37.576Z,64.10
2018-04-12T17:58:07.628Z,63.90
2018-04-12T18:00:37.603Z,63.70
2018-04-12T18:03:07.722Z,63.90
2018-04-12T18:05:37.636Z,64.40
2018-04-12T18:08:07.548Z,64.40
2018-04-12T18:10:37.636Z,64.40
2018-04-12T18:13:07.584Z,64.20
2018-04-12T18:15:37.705Z,64.40
2018-04-12T18:18:07.618Z,64.30
2018-04-12T18:20:38.532Z,64.80
2018-04-12T18:23:08.985Z,64.20
2018-04-12T18:25:39.817Z,64.00
2018-04-12T18:28:11.160Z,64.20
2018-04-12T18:30:42.524Z,64.70
2018-04-12T18:33:12.537Z,64.70
2018-04-12T18:35:42.958Z,64.60
2018-04-12T18:38:12.845Z,64.90
2018-04-12T18:40:42.787Z,64.50
2018-04-12T18:43:12.905Z,64.00
2018-04-12T18:45:42.954Z,64.20
2018-04-12T18:48:13.554Z,64.30
2018-04-12T18:50:43.672Z,64.20
2018-04-12T18:53:14.002Z,64.20
2018-04-12T18:55:44.112Z,64.20
2018-04-12T18:58:14.397Z,64.20
2018-04-12T19:00:44.351Z,64.80
2018-04-12T19:03:14.254Z,64.30
2018-04-12T19:05:44.179Z,63.90
2018-04-12T19:08:14.093Z,63.60
2018-04-12T19:10:44.184Z,63.70
2018-04-12T19:13:14.777Z,63.70
2018-04-12T19:15:44.991Z,63.60
2018-04-12T19:18:14.774Z,63.70
2018-04-12T19:20:45.486Z,63.90
2018-04-12T19:23:15.423Z,63.80
2018-04-12T19:25:45.344Z,63.80
2018-04-12T19:28:15.669Z,63.60
2018-04-12T19:30:45.783Z,63.40
2018-04-12T19:33:16.103Z,63.30
2018-04-12T19:35:46.377Z,63.60
2018-04-12T19:38:16.751Z,64.00
2018-04-12T19:40:47.046Z,63.80
2018-04-12T19:43:16.990Z,63.50
2018-04-12T19:45:47.518Z,63.50
2018-04-12T19:48:17.886Z,63.40
2018-04-12T19:50:47.723Z,63.50
2018-04-12T19:53:17.794Z,63.60
2018-04-12T19:55:47.911Z,63.60
2018-04-12T19:58:17.950Z,63.50
2018-04-12T20:00:47.944Z,64.20
2018-04-12T20:03:17.853Z,63.20
2018-04-12T20:05:47.954Z,63.30
2018-04-12T20:08:17.893Z,63.50
2018-04-12T20:10:47.759Z,63.30
2018-04-12T20:13:17.888Z,63.30
2018-04-12T20:15:47.796Z,63.30
2018-04-12T20:18:17.960Z,63.10
2018-04-12T20:20:48.070Z,63.50
2018-04-12T20:23:19.669Z,63.40
2018-04-12T20:25:49.551Z,63.40
2018-04-12T20:28:19.704Z,63.40
2018-04-12T20:30:49.572Z,63.30
2018-04-12T20:33:21.133Z,63.00
2018-04-12T20:35:50.924Z,63.00
2018-04-12T20:38:20.748Z,63.30
2018-04-12T20:40:50.678Z,63.30
2018-04-12T20:43:20.575Z,63.10
2018-04-12T20:45:50.628Z,63.40
2018-04-12T20:48:20.537Z,63.40
2018-04-12T20:50:50.522Z,63.40
2018-04-12T20:53:20.647Z,63.50
2018-04-12T20:55:50.932Z,63.30
2018-04-12T20:58:20.698Z,63.40
2018-04-12T21:00:50.754Z,63.60
2018-04-12T21:03:21.333Z,63.60
2018-04-12T21:05:51.237Z,63.40
2018-04-12T21:08:21.151Z,63.50
2018-04-12T21:10:51.484Z,63.30
2018-04-12T21:13:21.188Z,63.50
2018-04-12T21:15:51.098Z,63.60
2018-04-12T21:18:20.809Z,63.50
2018-04-12T21:20:50.622Z,63.40
2018-04-12T21:23:20.432Z,63.60
2018-04-12T21:25:50.431Z,63.80
2018-04-12T21:28:20.643Z,63.70
2018-04-12T21:30:50.383Z,63.70
2018-04-12T21:33:21.283Z,63.70
2018-04-12T21:35:51.030Z,63.60
2018-04-12T21:38:21.560Z,63.40
2018-04-12T21:40:51.472Z,63.50
2018-04-12T21:43:21.394Z,64.40
2018-04-12T21:45:51.301Z,64.20
2018-04-12T21:48:21.254Z,64.40
2018-04-12T21:50:51.130Z,64.20
2018-04-12T21:53:22.681Z,64.10
2018-04-12T21:55:52.596Z,64.10
2018-04-12T21:58:23.338Z,64.20
2018-04-12T22:00:53.246Z,64.10
2018-04-12T22:03:23.625Z,64.20
2018-04-12T22:05:54.097Z,64.10
2018-04-12T22:08:24.595Z,64.30
2018-04-12T22:10:54.928Z,64.20
2018-04-12T22:13:25.476Z,64.40
2018-04-12T22:15:56.075Z,64.30
2018-04-12T22:18:26.515Z,64.30
2018-04-12T22:20:56.866Z,64.20
2018-04-12T22:23:27.227Z,64.50
2018-04-12T22:25:57.564Z,64.60
2018-04-12T22:28:28.006Z,64.50
2018-04-12T22:30:58.542Z,64.70
2018-04-12T22:33:29.070Z,64.70
2018-04-12T22:35:59.499Z,64.70
2018-04-12T22:38:29.877Z,65.60
2018-04-12T22:42:03.275Z,64.90
2018-04-12T22:44:33.659Z,65.80
2018-04-12T22:47:04.266Z,66.20
2018-04-12T22:49:34.683Z,66.20
2018-04-12T22:52:05.840Z,66.40
2018-04-12T22:54:36.370Z,66.30
2018-04-12T22:57:06.755Z,66.50
2018-04-12T22:59:37.107Z,66.30
2018-04-12T23:02:07.554Z,66.50
2018-04-12T23:04:37.842Z,66.30
2018-04-12T23:07:08.207Z,66.60
2018-04-12T23:09:38.600Z,66.30
2018-04-12T23:12:08.927Z,66.40
2018-04-12T23:14:39.421Z,66.50
2018-04-12T23:17:09.778Z,66.60
2018-04-12T23:19:40.224Z,66.60
2018-04-12T23:22:10.561Z,66.60
2018-04-12T23:24:41.046Z,66.60
2018-04-12T23:27:11.373Z,66.80
2018-04-12T23:29:41.599Z,66.70
2018-04-12T23:32:12.066Z,66.80
2018-04-12T23:34:42.565Z,66.90
2018-04-12T23:37:13.367Z,66.80
2018-04-12T23:39:43.771Z,67.60
2018-04-12T23:42:13.987Z,66.90
2018-04-12T23:44:45.782Z,67.00
2018-04-12T23:47:16.247Z,67.00
2018-04-12T23:49:46.778Z,67.00
2018-04-12T23:52:18.144Z,67.00
2018-04-12T23:54:49.915Z,67.20
2018-04-12T23:57:20.258Z,67.10
2018-04-12T23:59:50.814Z,67.20
